Time;durP1;ratioP1;P1;durP2;ratioP2;P2;SDS_P1;SDS_P2;PMS_P1;PMS_P2;Temp;Humidity;BMP_temperature;BMP_pressure;BME280_temperature;BME280_humidity;BME280_pressure;Samples;Min_cycle;Max_cycle;Signal;HPM_P1;HPM_P2
2021/09/27 00:01:21;;;;;;;14.52;8.13;;;;;;;18.65;100.00;101438.44;6276678;22;20023;-72
2021/09/27 00:04:06;;;;;;;16.13;8.70;;;;;;;18.55;100.00;101431.75;6276770;22;20015;-72
2021/09/27 00:06:52;;;;;;;15.50;8.70;;;;;;;18.62;100.00;101431.44;6276256;22;20106;-72
2021/09/27 00:09:38;;;;;;;12.40;8.38;;;;;;;18.55;100.00;101432.63;6276978;22;20003;-72
2021/09/27 00:12:24;;;;;;;15.75;7.75;;;;;;;18.71;100.00;101435.53;6276369;22;20003;-72
2021/09/27 00:15:13;;;;;;;12.82;8.20;;;;;;;19.00;100.00;101436.09;6276580;22;20004;-71
2021/09/27 00:17:59;;;;;;;15.48;8.05;;;;;;;19.12;100.00;101435.59;6275750;22;20489;-72
2021/09/27 00:20:49;;;;;;;13.20;7.45;;;;;;;18.81;100.00;101426.28;6274903;22;20417;-72
2021/09/27 00:23:37;;;;;;;11.05;7.65;;;;;;;17.98;100.00;101416.22;6276354;22;20018;-72
2021/09/27 00:26:24;;;;;;;13.15;7.75;;;;;;;17.85;100.00;101412.25;6275916;22;20014;-72
2021/09/27 00:29:10;;;;;;;10.23;7.13;;;;;;;17.97;100.00;101411.81;6277035;22;20011;-71
2021/09/27 00:31:55;;;;;;;12.98;7.53;;;;;;;17.95;100.00;101418.97;6276306;22;20004;-71
2021/09/27 00:34:41;;;;;;;13.43;7.60;;;;;;;17.99;100.00;101417.06;6276721;22;20133;-71
2021/09/27 00:37:27;;;;;;;11.65;6.63;;;;;;;17.94;100.00;101419.03;6274457;22;20318;-71
2021/09/27 00:40:18;;;;;;;10.48;6.68;;;;;;;17.89;100.00;101419.19;6277313;22;20406;-71
2021/09/27 00:43:05;;;;;;;10.50;6.72;;;;;;;18.21;100.00;101415.38;6276524;22;20011;-71
2021/09/27 00:45:56;;;;;;;11.30;6.70;;;;;;;17.54;100.00;101424.00;6276544;22;20035;-72
2021/09/27 00:48:43;;;;;;;9.95;7.00;;;;;;;17.73;100.00;101420.66;6276414;22;20004;-72
2021/09/27 00:51:34;;;;;;;10.65;7.07;;;;;;;17.67;100.00;101417.34;6274545;22;20008;-72
2021/09/27 00:54:25;;;;;;;11.63;6.97;;;;;;;17.60;100.00;101414.06;6274314;22;20072;-72
2021/09/27 00:57:17;;;;;;;9.70;7.15;;;;;;;17.39;100.00;101416.53;6276166;22;20019;-72
2021/09/27 01:00:06;;;;;;;12.55;7.20;;;;;;;17.36;100.00;101406.06;6273981;22;20083;-71
2021/09/27 01:02:52;;;;;;;10.02;6.70;;;;;;;17.47;100.00;101414.53;6277006;22;20386;-72
2021/09/27 01:05:48;;;;;;;9.88;6.40;;;;;;;17.90;100.00;101409.44;6276000;22;20395;-71
2021/09/27 01:08:52;;;;;;;15.13;7.20;;;;;;;17.83;100.00;101411.47;6276549;22;20026;-71
2021/09/27 01:11:41;;;;;;;11.90;7.18;;;;;;;17.68;100.00;101417.31;6276336;22;20057;-71
2021/09/27 01:14:49;;;;;;;11.50;6.75;;;;;;;17.65;100.00;101417.41;6276698;22;20444;-71
2021/09/27 01:17:47;;;;;;;9.52;7.20;;;;;;;17.35;100.00;101421.09;6276604;22;20398;-72
2021/09/27 01:20:42;;;;;;;10.43;6.90;;;;;;;17.38;100.00;101417.47;6275275;22;20007;-71
2021/09/27 01:23:45;;;;;;;14.13;7.18;;;;;;;17.66;100.00;101421.81;6275736;22;20007;-72
2021/09/27 01:26:52;;;;;;;11.23;7.07;;;;;;;17.80;100.00;101413.38;6274486;22;20070;-72
2021/09/27 01:29:48;;;;;;;13.05;7.35;;;;;;;17.50;100.00;101415.31;6274399;22;20015;-71
2021/09/27 01:32:43;;;;;;;12.30;7.30;;;;;;;17.28;100.00;101416.91;6277023;22;20401;-71
2021/09/27 01:35:38;;;;;;;19.17;7.75;;;;;;;17.49;100.00;101418.84;6275784;22;20004;-71
2021/09/27 01:38:42;;;;;;;14.57;7.18;;;;;;;17.51;100.00;101416.16;6276256;22;20359;-72
2021/09/27 01:41:41;;;;;;;12.43;7.32;;;;;;;17.65;100.00;101425.34;6275199;22;20078;-71
2021/09/27 01:44:45;;;;;;;14.90;6.95;;;;;;;17.57;100.00;101422.09;6278814;22;20000;-72
2021/09/27 01:47:41;;;;;;;11.73;6.53;;;;;;;17.35;100.00;101421.09;6276847;22;20015;-71
2021/09/27 01:50:33;;;;;;;12.77;7.03;;;;;;;17.32;100.00;101415.88;6276846;22;20018;-71
2021/09/27 01:53:23;;;;;;;10.27;6.70;;;;;;;17.34;100.00;101418.50;6276399;22;20003;-71
2021/09/27 01:56:14;;;;;;;15.23;7.00;;;;;;;17.53;100.00;101415.19;6278246;22;20003;-71
2021/09/27 01:59:35;;;;;;;12.50;7.05;;;;;;;17.67;100.00;101422.66;6278511;22;20513;-71
2021/09/27 02:02:31;;;;;;;13.93;6.70;;;;;;;17.34;100.00;101418.50;6276511;22;20030;-70
2021/09/27 02:05:59;;;;;;;11.13;7.00;;;;;;;17.51;100.00;101419.69;6278087;22;20042;-71
2021/09/27 02:09:12;;;;;;;7.88;6.18;;;;;;;17.62;100.00;101414.00;6277119;22;20073;-71
2021/09/27 02:12:05;;;;;;;12.65;6.93;;;;;;;17.80;100.00;101414.22;6277986;22;20053;-71
2021/09/27 02:15:05;;;;;;;8.77;6.57;;;;;;;17.90;100.00;101407.69;6276376;22;20398;-71
2021/09/27 02:17:59;;;;;;;13.82;7.20;;;;;;;17.78;100.00;101409.88;6278234;22;20019;-71
2021/09/27 02:20:52;;;;;;;9.63;7.03;;;;;;;17.85;100.00;101408.75;6278019;22;20094;-70
2021/09/27 02:23:46;;;;;;;12.52;7.32;;;;;;;17.86;100.00;101413.13;6277494;22;20082;-71
2021/09/27 02:26:32;;;;;;;11.65;6.68;;;;;;;17.60;100.00;101415.88;6275806;22;20003;-71
2021/09/27 02:29:19;;;;;;;10.65;6.78;;;;;;;17.72;100.00;101404.81;6275920;22;20035;-70
2021/09/27 02:32:21;;;;;;;12.57;7.38;;;;;;;17.70;100.00;101406.66;6277434;22;20008;-71
2021/09/27 02:35:09;;;;;;;13.80;7.07;;;;;;;17.25;100.00;101406.44;6278295;22;20004;-71
2021/09/27 02:38:01;;;;;;;11.18;7.05;;;;;;;17.45;100.00;101411.09;6276786;22;20003;-71
2021/09/27 02:40:51;;;;;;;11.00;7.63;;;;;;;17.27;100.00;101414.31;6277463;22;20092;-71
2021/09/27 02:43:37;;;;;;;12.82;7.88;;;;;;;17.52;100.00;101409.97;6276689;22;20417;-71
2021/09/27 02:46:23;;;;;;;12.20;8.18;;;;;;;17.10;100.00;101414.91;6277812;22;19999;-71
2021/09/27 02:49:13;;;;;;;16.30;8.27;;;;;;;17.14;100.00;101420.94;6277491;22;20042;-71
2021/09/27 02:52:02;;;;;;;11.52;8.77;;;;;;;16.66;100.00;101417.22;6276666;22;20068;-71
2021/09/27 02:54:53;;;;;;;12.88;8.80;;;;;;;16.82;100.00;101413.19;6277300;22;20004;-71
2021/09/27 02:57:51;;;;;;;14.52;8.77;;;;;;;16.67;100.00;101403.06;6276601;22;20074;-71
2021/09/27 03:00:51;;;;;;;11.95;8.93;;;;;;;16.50;100.00;101406.25;6276649;22;20007;-71
2021/09/27 03:03:54;;;;;;;12.23;9.40;;;;;;;16.99;100.00;101414.38;6278237;22;20030;-71
2021/09/27 03:07:17;;;;;;;10.88;8.80;;;;;;;16.56;100.00;101399.91;6275142;22;20015;-70
2021/09/27 03:10:05;;;;;;;18.92;9.43;;;;;;;16.71;100.00;101402.06;6277048;22;20018;-70
2021/09/27 03:13:42;;;;;;;13.52;9.73;;;;;;;16.45;100.00;101397.59;6276615;22;20085;-70
2021/09/27 03:16:37;;;;;;;17.52;9.45;;;;;;;16.43;100.00;101401.22;6235782;22;20004;-70
2021/09/27 03:19:55;;;;;;;13.45;9.35;;;;;;;16.59;100.00;101403.31;6274934;22;20080;-71
2021/09/27 03:23:02;;;;;;;14.82;10.40;;;;;;;16.07;100.00;101403.13;6278279;22;20012;-70
2021/09/27 03:26:19;;;;;;;13.93;9.15;;;;;;;16.41;100.00;101398.63;6276915;22;20402;-70
2021/09/27 03:29:39;;;;;;;14.40;9.75;;;;;;;16.81;100.00;101396.44;6274901;22;20010;-70
2021/09/27 03:32:42;;;;;;;15.27;10.30;;;;;;;16.74;100.00;101396.69;6276387;22;20011;-70
2021/09/27 03:35:47;;;;;;;16.80;10.05;;;;;;;16.88;100.00;101402.41;6277669;22;20007;-70
2021/09/27 03:38:42;;;;;;;20.23;11.02;;;;;;;16.84;100.00;101403.44;6278306;22;20031;-71
2021/09/27 03:41:46;;;;;;;18.42;10.70;;;;;;;16.65;100.00;101404.91;6276815;22;20082;-71
2021/09/27 03:44:44;;;;;;;17.02;10.35;;;;;;;16.18;100.00;101411.59;6277068;22;20000;-71
2021/09/27 03:47:39;;;;;;;14.30;10.05;;;;;;;16.51;100.00;101407.13;6277828;22;20007;-70
2021/09/27 03:51:00;;;;;;;17.10;10.50;;;;;;;16.69;100.00;101407.44;6277009;22;20012;-71
2021/09/27 03:53:53;;;;;;;17.50;10.30;;;;;;;16.42;100.00;101402.97;6274943;22;20018;-70
2021/09/27 03:56:44;;;;;;;14.95;10.77;;;;;;;16.44;100.00;101408.22;6276057;22;20413;-72
2021/09/27 03:59:56;;;;;;;18.38;11.32;;;;;;;16.35;100.00;101409.31;6276577;22;20011;-71
2021/09/27 04:03:01;;;;;;;18.83;11.35;;;;;;;16.08;100.00;101402.19;6278541;22;20014;-70
2021/09/27 04:06:10;;;;;;;17.55;11.77;;;;;;;15.89;100.00;101400.13;6276375;22;20003;-73
2021/09/27 04:09:08;;;;;;;20.85;12.35;;;;;;;15.73;100.00;101401.47;6277044;22;20008;-71
2021/09/27 04:12:15;;;;;;;19.08;12.35;;;;;;;15.46;100.00;101402.22;6277768;22;20339;-71
2021/09/27 04:15:11;;;;;;;16.73;11.82;;;;;;;16.09;100.00;101395.16;6276834;22;20090;-71
2021/09/27 04:18:15;;;;;;;19.73;10.80;;;;;;;15.80;100.00;101406.56;6275809;22;20093;-71
2021/09/27 04:21:13;;;;;;;18.67;11.75;;;;;;;16.06;100.00;101409.31;6277189;22;20086;-71
2021/09/27 04:24:09;;;;;;;17.58;12.35;;;;;;;16.04;100.00;101405.84;6277412;22;20018;-72
2021/09/27 04:27:17;;;;;;;22.33;12.38;;;;;;;16.01;100.00;101405.94;6276387;22;20018;-71
2021/09/27 04:30:11;;;;;;;19.70;12.23;;;;;;;16.18;100.00;101406.31;6276277;22;20008;-71
2021/09/27 04:32:59;;;;;;;17.83;12.13;;;;;;;16.29;100.00;101413.94;6276642;22;20007;-72
2021/09/27 04:36:13;;;;;;;21.02;12.05;;;;;;;16.23;100.00;101419.41;6276328;22;20087;-71
2021/09/27 04:39:05;;;;;;;17.95;11.68;;;;;;;16.12;100.00;101414.41;6276855;22;20000;-71
2021/09/27 04:42:28;;;;;;;16.42;11.80;;;;;;;16.08;100.00;101419.84;6276932;22;20351;-71
2021/09/27 04:45:40;;;;;;;19.65;12.63;;;;;;;16.42;100.00;101423.25;6276502;22;20004;-72
2021/09/27 04:48:38;;;;;;;19.15;12.15;;;;;;;16.29;100.00;101435.09;6277330;22;20103;-72
2021/09/27 04:51:43;;;;;;;20.27;12.63;;;;;;;16.26;100.00;101429.88;6276290;22;20007;-71
2021/09/27 04:55:03;;;;;;;20.40;13.30;;;;;;;16.42;100.00;101425.91;6276115;22;20007;-71
2021/09/27 04:58:11;;;;;;;22.40;13.50;;;;;;;16.16;100.00;101434.56;6277445;22;20011;-72
2021/09/27 05:01:12;;;;;;;16.85;12.80;;;;;;;16.12;100.00;101429.44;6275061;22;20310;-71
2021/09/27 05:04:13;;;;;;;15.73;13.98;;;;;;;15.98;100.00;101426.28;6277233;22;20003;-71
2021/09/27 05:07:37;;;;;;;20.30;15.15;;;;;;;15.65;100.00;101443.09;6276839;22;20023;-71
2021/09/27 05:10:30;;;;;;;19.52;14.32;;;;;;;16.04;100.00;101436.72;6276291;22;20007;-72
2021/09/27 05:13:24;;;;;;;18.98;13.35;;;;;;;16.41;100.00;101440.06;6276978;22;20464;-71
2021/09/27 05:16:24;;;;;;;19.15;12.85;;;;;;;16.67;100.00;101434.81;6276332;22;20011;-71
2021/09/27 05:19:19;;;;;;;17.27;13.25;;;;;;;16.56;100.00;101448.38;6278304;22;20330;-70
2021/09/27 05:22:08;;;;;;;21.58;13.57;;;;;;;16.44;100.00;101447.91;6278694;22;20007;-71
2021/09/27 05:25:22;;;;;;;19.48;13.70;;;;;;;16.58;100.00;101451.88;6275662;22;20361;-71
2021/09/27 05:28:30;;;;;;;20.70;12.75;;;;;;;17.09;100.00;101444.94;6277409;22;20310;-72
2021/09/27 05:31:22;;;;;;;19.02;13.73;;;;;;;16.80;100.00;101446.78;6278870;22;20357;-71
2021/09/27 05:34:49;;;;;;;26.45;14.93;;;;;;;16.60;100.00;101438.59;6278791;22;20008;-71
2021/09/27 05:37:46;;;;;;;22.15;16.08;;;;;;;16.62;100.00;101431.47;6188279;23;20009;-72
2021/09/27 05:40:36;;;;;;;20.10;14.02;;;;;;;17.02;100.00;101430.16;6188310;23;20316;-71
2021/09/27 05:43:44;;;;;;;23.98;15.10;;;;;;;16.66;100.00;101433.97;6278786;22;20011;-71
2021/09/27 05:46:32;;;;;;;21.25;15.00;;;;;;;16.95;100.00;101428.63;6278045;22;20438;-71
2021/09/27 05:49:54;;;;;;;22.05;15.23;;;;;;;17.00;100.00;101433.78;6276883;22;20007;-71
2021/09/27 05:53:17;;;;;;;23.50;17.30;;;;;;;16.71;100.00;101436.47;6277227;22;20038;-72
2021/09/27 05:56:11;;;;;;;30.38;19.52;;;;;;;17.11;100.00;101435.16;6277681;22;20011;-71
2021/09/27 05:59:18;;;;;;;26.05;18.60;;;;;;;17.33;100.00;101430.00;6278777;22;20406;-70
2021/09/27 06:02:35;;;;;;;25.38;18.02;;;;;;;17.68;100.00;101429.72;6277978;22;20007;-71
2021/09/27 06:05:27;;;;;;;26.40;18.65;;;;;;;17.67;100.00;101430.59;6278082;22;20015;-71
2021/09/27 06:08:25;;;;;;;26.88;17.52;;;;;;;17.60;100.00;101437.06;6279131;22;20023;-71
2021/09/27 06:11:25;;;;;;;24.33;17.52;;;;;;;17.98;100.00;101434.78;6276626;22;20003;-71
2021/09/27 06:14:16;;;;;;;28.42;16.73;;;;;;;18.00;100.00;101434.69;6277843;22;20046;-72
2021/09/27 06:17:27;;;;;;;19.80;15.73;;;;;;;18.05;100.00;101436.25;6279290;22;20035;-72
2021/09/27 06:20:20;;;;;;;22.42;13.68;;;;;;;17.94;100.00;101432.28;6280076;22;20344;-71
2021/09/27 06:23:30;;;;;;;20.38;13.45;;;;;;;17.61;100.00;101447.59;6278178;22;20027;-71
2021/09/27 06:26:20;;;;;;;19.40;12.52;;;;;;;17.55;100.00;101438.97;6278112;22;19999;-71
2021/09/27 06:29:24;;;;;;;19.05;12.80;;;;;;;17.58;100.00;101437.13;6278819;22;20043;-72
2021/09/27 06:32:29;;;;;;;20.85;12.55;;;;;;;18.00;100.00;101429.38;6277633;22;20384;-71
2021/09/27 06:35:18;;;;;;;20.58;12.23;;;;;;;18.14;100.00;101435.94;6278233;22;20271;-71
2021/09/27 06:38:06;;;;;;;14.48;11.93;;;;;;;18.09;100.00;101443.19;6276694;22;20418;-72
2021/09/27 06:40:53;;;;;;;20.45;12.77;;;;;;;18.21;100.00;101448.03;6278228;22;20003;-72
2021/09/27 06:43:39;;;;;;;21.15;11.85;;;;;;;18.74;100.00;101446.88;6277028;22;20082;-71
2021/09/27 06:46:25;;;;;;;17.10;11.25;;;;;;;18.58;100.00;101448.41;6277760;22;20015;-72
2021/09/27 06:49:11;;;;;;;20.55;10.73;;;;;;;18.33;100.00;101452.03;6277300;22;20004;-72
2021/09/27 06:51:56;;;;;;;15.68;10.50;;;;;;;19.15;100.00;101456.75;6277814;22;20062;-72
2021/09/27 06:54:42;;;;;;;20.38;12.48;;;;;;;19.57;100.00;101454.09;6275234;22;20065;-71
2021/09/27 06:57:28;;;;;;;19.42;13.10;;;;;;;20.08;100.00;101456.25;6275387;22;20003;-72
2021/09/27 07:00:14;;;;;;;20.08;13.00;;;;;;;20.26;100.00;101452.81;6277966;22;20109;-71
2021/09/27 07:03:00;;;;;;;21.70;12.68;;;;;;;20.45;100.00;101461.72;6278965;22;20022;-71
2021/09/27 07:05:46;;;;;;;25.80;12.90;;;;;;;19.10;100.00;101463.16;6276792;22;20015;-72
2021/09/27 07:08:32;;;;;;;18.42;12.48;;;;;;;19.68;100.00;101461.63;6277651;22;20069;-71
2021/09/27 07:11:18;;;;;;;18.95;12.63;;;;;;;20.02;100.00;101452.13;6277150;22;20091;-71
2021/09/27 07:14:03;;;;;;;18.58;13.05;;;;;;;20.24;100.00;101460.00;6277989;22;20015;-73
2021/09/27 07:16:49;;;;;;;22.83;18.05;;;;;;;20.52;100.00;101457.81;6277889;22;20008;-71
2021/09/27 07:19:35;;;;;;;16.17;11.95;;;;;;;20.55;100.00;101460.31;6277839;22;20311;-71
2021/09/27 07:22:22;;;;;;;22.52;11.73;;;;;;;20.79;100.00;101456.50;6275857;22;20520;-72
2021/09/27 07:25:09;;;;;;;19.90;11.60;;;;;;;20.58;100.00;101457.53;6278146;22;20439;-71
2021/09/27 07:27:57;;;;;;;15.25;12.25;;;;;;;20.78;100.00;101450.31;6276887;22;20477;-71
2021/09/27 07:30:43;;;;;;;17.45;12.80;;;;;;;21.05;100.00;101457.00;6276941;22;20008;-70
2021/09/27 07:33:30;;;;;;;15.90;11.02;;;;;;;20.97;100.00;101461.00;6275606;22;20406;-71
2021/09/27 07:36:16;;;;;;;14.98;10.70;;;;;;;21.24;100.00;101460.50;6277041;22;20004;-70
2021/09/27 07:39:04;;;;;;;16.38;10.70;;;;;;;21.59;100.00;101462.28;6278101;22;20004;-70
2021/09/27 07:41:50;;;;;;;20.88;12.05;;;;;;;21.64;100.00;101457.56;6275831;22;20410;-70
2021/09/27 07:44:36;;;;;;;17.00;12.93;;;;;;;21.45;100.00;101454.09;6275330;22;20003;-71
2021/09/27 07:47:22;;;;;;;13.40;10.07;;;;;;;21.61;100.00;101464.84;6276870;22;20018;-72
2021/09/27 07:50:10;;;;;;;12.43;9.70;;;;;;;21.66;100.00;101465.50;6276979;22;20014;-72
2021/09/27 07:52:55;;;;;;;14.40;9.40;;;;;;;21.95;100.00;101452.38;6276584;22;20003;-72
2021/09/27 07:55:42;;;;;;;13.25;8.60;;;;;;;22.90;100.00;101464.03;6276597;22;20295;-72
2021/09/27 07:58:27;;;;;;;13.57;9.18;;;;;;;23.19;100.00;101465.91;6277743;22;20420;-72
2021/09/27 08:01:13;;;;;;;15.45;8.63;;;;;;;22.80;100.00;101472.66;6276680;22;20004;-72
2021/09/27 08:03:59;;;;;;;12.52;7.93;;;;;;;23.71;100.00;101466.41;6276835;22;20003;-70
2021/09/27 08:06:45;;;;;;;14.68;8.75;;;;;;;23.07;100.00;101468.44;6276687;22;20015;-70
2021/09/27 08:09:31;;;;;;;14.63;8.45;;;;;;;23.10;100.00;101470.91;6276894;22;20035;-72
2021/09/27 08:12:17;;;;;;;11.98;7.63;;;;;;;23.11;100.00;101470.84;6276501;22;20042;-72
2021/09/27 08:15:11;;;;;;;10.38;7.20;;;;;;;23.68;100.00;101455.03;6277308;22;20017;-69
2021/09/27 08:17:57;;;;;;;9.50;7.18;;;;;;;23.74;100.00;101452.03;6277109;22;20095;-72
2021/09/27 08:20:48;;;;;;;10.27;6.80;;;;;;;24.28;100.00;101454.91;6277278;22;20016;-71
2021/09/27 08:23:34;;;;;;;13.18;7.85;;;;;;;24.63;100.00;101445.50;6276449;22;20003;-71
2021/09/27 08:26:20;;;;;;;10.23;7.10;;;;;;;24.87;100.00;101437.72;6276919;22;20015;-71
2021/09/27 08:29:06;;;;;;;10.13;7.25;;;;;;;25.00;100.00;101435.94;6276843;22;20090;-71
2021/09/27 08:31:52;;;;;;;19.13;7.32;;;;;;;24.20;100.00;101433.09;6276422;22;20073;-71
2021/09/27 08:34:38;;;;;;;13.07;7.13;;;;;;;24.98;100.00;101436.03;6275684;22;20073;-71
2021/09/27 08:37:24;;;;;;;12.45;6.45;;;;;;;25.32;99.84;101434.72;6275283;22;20003;-72
2021/09/27 08:40:39;;;;;;;13.77;6.60;;;;;;;25.69;96.88;101436.63;6275207;22;20077;-72
2021/09/27 08:43:57;;;;;;;10.38;6.50;;;;;;;25.58;97.62;101436.47;6274308;22;20007;-71
2021/09/27 08:46:51;;;;;;;9.18;6.10;;;;;;;24.99;100.00;101439.59;6276582;22;20008;-72
2021/09/27 08:49:49;;;;;;;9.05;7.10;;;;;;;25.37;98.47;101437.94;6276279;22;20015;-72
2021/09/27 08:52:38;;;;;;;13.23;6.65;;;;;;;25.30;98.48;101431.25;6275708;22;20367;-71
2021/09/27 08:55:26;;;;;;;8.70;6.20;;;;;;;25.15;97.85;101433.09;6276177;22;20014;-71
2021/09/27 08:58:39;;;;;;;8.50;6.10;;;;;;;25.94;93.85;101425.91;6277896;22;20035;-71
2021/09/27 09:01:36;;;;;;;8.00;5.70;;;;;;;26.45;88.97;101430.31;6274218;22;20007;-71
2021/09/27 09:04:48;;;;;;;16.38;9.70;;;;;;;26.60;85.86;101437.31;6276880;22;20003;-71
2021/09/27 09:07:41;;;;;;;9.63;6.20;;;;;;;26.29;86.48;101425.16;6275721;22;20410;-71
2021/09/27 09:10:44;;;;;;;11.00;6.28;;;;;;;26.05;89.12;101429.59;6276967;22;19999;-71
2021/09/27 09:13:38;;;;;;;13.68;5.85;;;;;;;26.13;87.66;101429.91;6275016;22;20007;-71
2021/09/27 09:16:28;;;;;;;10.75;5.75;;;;;;;25.65;92.49;101405.56;6276442;22;20022;-71
2021/09/27 09:19:18;;;;;;;7.55;5.75;;;;;;;26.25;89.95;101417.44;6276873;22;20075;-71
2021/09/27 09:22:12;;;;;;;8.50;6.13;;;;;;;26.29;90.32;101400.13;6274455;22;20008;-71
2021/09/27 09:24:58;;;;;;;12.23;6.20;;;;;;;25.98;89.71;101397.88;6277878;22;19995;-72
2021/09/27 09:27:43;;;;;;;7.97;5.72;;;;;;;26.11;91.14;101387.97;6276052;22;20007;-72
2021/09/27 09:31:04;;;;;;;8.52;5.68;;;;;;;26.05;91.37;101383.94;6275788;22;20022;-70
2021/09/27 09:33:57;;;;;;;13.93;7.22;;;;;;;25.72;92.92;101380.88;6277016;22;20012;-71
2021/09/27 09:36:45;;;;;;;11.25;6.35;;;;;;;26.29;86.35;101381.31;6276072;22;20052;-71
2021/09/27 09:39:38;;;;;;;13.40;6.30;;;;;;;26.55;81.21;101377.56;6276990;22;20038;-71
2021/09/27 09:42:33;;;;;;;9.63;6.53;;;;;;;26.71;83.02;101376.38;6276226;22;20086;-71
2021/09/27 09:45:24;;;;;;;10.95;5.82;;;;;;;26.65;80.45;101366.06;6274921;22;19999;-71
2021/09/27 09:48:20;;;;;;;9.02;6.20;;;;;;;26.18;80.98;101362.41;6276195;22;20420;-71
2021/09/27 09:51:35;;;;;;;10.65;5.88;;;;;;;26.51;80.95;101365.31;6276832;22;20004;-71
2021/09/27 09:54:23;;;;;;;9.98;6.20;;;;;;;26.67;80.35;101368.66;6276654;22;20076;-71
2021/09/27 09:57:32;;;;;;;10.40;6.38;;;;;;;27.00;77.96;101361.63;6276727;22;20008;-71
2021/09/27 10:00:49;;;;;;;7.85;5.97;;;;;;;27.14;75.26;101352.50;6276932;22;20016;-72
2021/09/27 10:03:35;;;;;;;11.35;6.20;;;;;;;27.23;75.04;101341.94;6275613;22;19999;-73
2021/09/27 10:06:41;;;;;;;12.00;6.53;;;;;;;27.67;73.24;101345.69;6276781;22;20026;-73
2021/09/27 10:09:32;;;;;;;9.13;5.25;;;;;;;27.30;68.25;101345.00;6278186;22;20050;-72
2021/09/27 10:12:48;;;;;;;7.63;5.13;;;;;;;27.53;67.44;101342.25;6277534;22;20018;-72
2021/09/27 10:15:34;;;;;;;13.43;6.13;;;;;;;27.54;65.05;101343.13;6278347;22;20012;-72
2021/09/27 10:18:36;;;;;;;12.02;6.10;;;;;;;27.87;63.45;101348.56;6279688;22;20081;-71
2021/09/27 10:21:29;;;;;;;7.78;4.97;;;;;;;27.88;63.93;101342.19;6276812;22;20367;-72
2021/09/27 10:24:20;;;;;;;9.95;5.50;;;;;;;27.67;61.28;101341.16;6276153;22;20030;-72
2021/09/27 10:27:35;;;;;;;14.82;6.47;;;;;;;27.85;62.22;101336.22;6278419;22;20008;-72
2021/09/27 10:30:24;;;;;;;6.97;5.30;;;;;;;27.85;61.20;101333.50;6276412;22;20407;-72
2021/09/27 10:33:18;;;;;;;6.95;5.28;;;;;;;27.83;60.41;101325.53;6278055;22;20018;-72
2021/09/27 10:36:08;;;;;;;11.23;5.07;;;;;;;28.09;60.01;101329.72;6275339;22;20485;-73
2021/09/27 10:38:58;;;;;;;10.25;5.10;;;;;;;27.70;60.70;101326.59;6278536;22;20343;-73
2021/09/27 10:41:55;;;;;;;8.70;4.80;;;;;;;27.76;61.45;101318.88;6278102;22;20003;-74
2021/09/27 10:44:47;;;;;;;7.93;4.72;;;;;;;28.29;59.16;101315.47;6277367;22;20034;-73
2021/09/27 10:47:37;;;;;;;10.57;4.82;;;;;;;28.06;56.55;101318.31;6277001;22;20421;-72
2021/09/27 10:50:44;;;;;;;9.50;7.28;;;;;;;28.22;57.35;101313.41;6277680;22;20090;-72
2021/09/27 10:53:52;;;;;;;10.10;4.60;;;;;;;28.16;55.95;101311.22;6276295;22;20003;-72
2021/09/27 10:56:48;;;;;;;6.78;4.53;;;;;;;28.54;53.32;101304.44;6277523;22;20065;-72
2021/09/27 10:59:44;;;;;;;15.68;12.45;;;;;;;29.01;52.90;101300.50;6276927;22;20315;-72
2021/09/27 11:02:39;;;;;;;7.82;4.80;;;;;;;28.78;53.27;101302.41;6278821;22;20022;-73
2021/09/27 11:05:50;;;;;;;7.65;4.60;;;;;;;28.92;53.68;101299.38;6275643;22;20004;-72
2021/09/27 11:08:44;;;;;;;11.60;5.78;;;;;;;28.90;53.47;101295.97;6275975;22;20020;-71
2021/09/27 11:11:30;;;;;;;7.68;5.03;;;;;;;29.33;51.61;101290.50;6277984;22;20011;-71
2021/09/27 11:14:27;;;;;;;7.45;4.90;;;;;;;29.11;51.08;101283.38;6276370;22;20007;-73
2021/09/27 11:17:33;;;;;;;9.07;5.45;;;;;;;29.29;50.92;101289.88;6277189;22;20007;-73
2021/09/27 11:20:46;;;;;;;7.53;4.53;;;;;;;29.16;50.14;101281.13;6277302;22;20069;-72
2021/09/27 11:23:36;;;;;;;6.50;5.00;;;;;;;29.23;50.89;101278.75;6275652;22;20394;-73
2021/09/27 11:26:21;;;;;;;5.75;4.60;;;;;;;29.38;50.53;101278.31;6275186;22;20387;-72
2021/09/27 11:29:22;;;;;;;7.43;4.45;;;;;;;29.68;49.39;101278.34;6279165;22;20007;-73
2021/09/27 11:32:31;;;;;;;8.73;4.93;;;;;;;29.70;49.16;101273.66;6277367;22;20004;-72
2021/09/27 11:35:29;;;;;;;5.53;4.75;;;;;;;28.89;50.26;101263.72;6276608;22;20073;-71
2021/09/27 11:38:15;;;;;;;7.40;4.80;;;;;;;29.34;49.98;101266.06;6275566;22;20008;-71
2021/09/27 11:41:21;;;;;;;5.13;4.22;;;;;;;29.27;49.93;101253.22;6278601;22;20014;-71
2021/09/27 11:44:25;;;;;;;8.05;4.78;;;;;;;29.63;49.38;101253.59;6276993;22;20014;-71
2021/09/27 11:47:15;;;;;;;15.38;13.20;;;;;;;30.00;48.39;101251.16;6276600;22;20072;-72
2021/09/27 11:50:11;;;;;;;9.98;7.63;;;;;;;30.45;46.85;101252.41;6277806;22;20011;-72
2021/09/27 11:53:10;;;;;;;8.48;5.00;;;;;;;30.13;47.19;101246.34;6277643;22;20004;-71
2021/09/27 11:56:16;;;;;;;5.72;4.30;;;;;;;30.03;47.37;101250.91;6275541;22;20090;-72
2021/09/27 11:59:11;;;;;;;9.00;4.60;;;;;;;30.14;47.13;101240.84;6278258;22;20004;-71
2021/09/27 12:02:09;;;;;;;7.63;4.60;;;;;;;29.58;48.03;101234.22;6274685;22;20073;-70
2021/09/27 12:05:27;;;;;;;5.65;4.10;;;;;;;29.45;48.50;101228.16;6278638;22;20069;-70
2021/09/27 12:08:18;;;;;;;6.68;4.97;;;;;;;29.10;49.74;101221.44;6275641;22;20020;-71
2021/09/27 12:11:08;;;;;;;6.28;4.30;;;;;;;29.18;49.57;101218.91;6275839;22;20399;-71
2021/09/27 12:14:01;;;;;;;7.05;4.75;;;;;;;29.93;48.20;101213.03;6276613;22;20355;-71
2021/09/27 12:16:53;;;;;;;6.00;4.45;;;;;;;29.23;48.41;101217.53;6274374;22;20015;-71
2021/09/27 12:20:11;;;;;;;8.50;4.75;;;;;;;28.84;51.10;101209.28;6276057;22;20008;-71
2021/09/27 12:23:01;;;;;;;10.05;4.60;;;;;;;28.79;51.51;101207.00;6277443;22;20057;-71
2021/09/27 12:25:52;;;;;;;9.52;4.53;;;;;;;28.47;52.27;101206.16;6274502;22;20004;-70
2021/09/27 12:28:38;;;;;;;9.25;4.53;;;;;;;29.07;50.68;101203.66;6274937;22;20016;-70
2021/09/27 12:31:24;;;;;;;9.10;4.80;;;;;;;29.34;49.39;101208.50;6275765;22;20011;-69
2021/09/27 12:34:18;;;;;;;11.02;4.60;;;;;;;29.09;49.43;101214.31;6273489;22;20087;-70
2021/09/27 12:37:09;;;;;;;5.47;4.47;;;;;;;29.21;49.47;101206.00;6274688;22;20015;-70
2021/09/27 12:39:55;;;;;;;7.38;4.68;;;;;;;28.94;49.20;101205.69;6274164;22;20007;-70
2021/09/27 12:43:13;;;;;;;6.05;4.80;;;;;;;29.30;48.32;101210.63;6273753;22;20007;-71
2021/09/27 12:46:12;;;;;;;7.93;4.45;;;;;;;29.23;47.34;101206.75;6274898;22;20000;-73
2021/09/27 12:49:02;;;;;;;7.43;4.00;;;;;;;28.89;48.64;101201.66;6273912;22;20033;-72
2021/09/27 12:51:55;;;;;;;9.27;4.97;;;;;;;28.91;49.18;101197.84;6275743;22;20037;-72
2021/09/27 12:54:45;;;;;;;8.52;5.28;;;;;;;29.22;49.17;101205.03;6275255;22;20091;-72
2021/09/27 12:57:39;;;;;;;8.88;4.82;;;;;;;29.36;48.36;101198.41;6275668;22;20083;-72
2021/09/27 13:00:33;;;;;;;8.27;4.90;;;;;;;28.84;49.73;101195.78;6275105;22;20007;-71
2021/09/27 13:03:24;;;;;;;5.82;4.35;;;;;;;28.85;49.31;101200.22;6274279;22;20096;-72
2021/09/27 13:06:23;;;;;;;6.10;4.53;;;;;;;28.75;49.60;101193.88;6274798;22;20022;-72
2021/09/27 13:09:22;;;;;;;6.32;4.22;;;;;;;28.45;50.60;101194.63;6274066;22;20069;-72
2021/09/27 13:12:23;;;;;;;4.68;4.10;;;;;;;28.56;50.54;101189.19;6274841;22;20030;-73
2021/09/27 13:15:25;;;;;;;6.32;4.30;;;;;;;28.65;50.52;101193.81;6275298;22;20007;-72
2021/09/27 13:18:32;;;;;;;11.95;5.10;;;;;;;28.66;50.69;101190.16;6275428;22;20015;-72
2021/09/27 13:21:43;;;;;;;8.40;4.55;;;;;;;28.54;50.58;101188.50;6274897;22;20081;-71
2021/09/27 13:24:30;;;;;;;7.22;4.80;;;;;;;27.65;52.57;101178.00;6273160;22;20087;-72